Time;durP1;ratioP1;P1;durP2;ratioP2;P2;SDS_P1;SDS_P2;PMS_P1;PMS_P2;Temp;Humidity;BMP_temperature;BMP_pressure;BME280_temperature;BME280_humidity;BME280_pressure;Samples;Min_cycle;Max_cycle;Signal;HPM_P1;HPM_P2
2022/11/09 00:00:10;;;;;;;3.40;1.70;;;;;;;14.35;100.00;99934.66;687749;28;1048;-69
2022/11/09 00:00:30;;;;;;;3.25;1.60;;;;;;;14.35;100.00;99934.66;688149;28;1166;-70
2022/11/09 00:00:51;;;;;;;2.90;1.40;;;;;;;14.36;100.00;99925.84;687085;28;4509;-66
2022/11/09 00:01:12;;;;;;;3.40;1.58;;;;;;;14.45;100.00;99930.84;687084;28;1284;-69
2022/11/09 00:01:32;;;;;;;3.07;1.63;;;;;;;14.45;100.00;99929.94;685618;28;1907;-69
2022/11/09 00:01:52;;;;;;;3.75;1.58;;;;;;;14.44;100.00;99928.22;685541;28;1487;-69
2022/11/09 00:02:13;;;;;;;2.73;1.50;;;;;;;14.45;100.00;99927.31;684739;28;1207;-70
2022/11/09 00:02:33;;;;;;;3.70;1.60;;;;;;;14.42;100.00;99927.44;682695;28;1283;-71
2022/11/09 00:02:54;;;;;;;3.33;1.50;;;;;;;14.45;100.00;99922.06;682608;28;1297;-70
2022/11/09 00:03:14;;;;;;;2.25;1.40;;;;;;;14.56;100.00;99922.56;682062;29;1147;-68
2022/11/09 00:03:35;;;;;;;2.33;1.40;;;;;;;14.57;100.00;99920.81;682965;28;1420;-69
2022/11/09 00:03:57;;;;;;;2.30;1.48;;;;;;;14.64;100.00;99922.34;684658;28;4287;-69
2022/11/09 00:04:17;;;;;;;2.63;1.48;;;;;;;14.62;100.00;99922.41;684857;28;1520;-69
2022/11/09 00:04:38;;;;;;;2.58;1.52;;;;;;;14.68;100.00;99916.09;685268;28;1267;-70
2022/11/09 00:04:58;;;;;;;3.07;1.60;;;;;;;14.65;100.00;99918.81;684851;28;801;-68
2022/11/09 00:05:19;;;;;;;3.55;1.45;;;;;;;14.58;100.00;99925.13;683709;28;1237;-70
2022/11/09 00:05:40;;;;;;;4.27;1.50;;;;;;;14.54;100.00;99918.25;682426;28;2587;-69
2022/11/09 00:06:00;;;;;;;3.50;1.50;;;;;;;14.47;100.00;99915.84;688148;28;1439;-69
2022/11/09 00:06:21;;;;;;;3.30;1.50;;;;;;;14.46;100.00;99921.16;687128;28;1320;-70
2022/11/09 00:06:41;;;;;;;2.70;1.50;;;;;;;14.42;100.00;99919.53;684642;28;1447;-70
2022/11/09 00:07:02;;;;;;;3.35;1.60;;;;;;;14.39;100.00;99922.28;684762;28;4320;-70
2022/11/09 00:07:22;;;;;;;3.07;1.40;;;;;;;14.52;100.00;99914.84;681928;28;1170;-72
2022/11/09 00:07:42;;;;;;;2.58;1.50;;;;;;;14.49;100.00;99918.44;682797;29;1451;-70
2022/11/09 00:08:10;;;;;;;2.53;1.60;;;;;;;14.46;100.00;99914.13;682686;28;1262;-69
2022/11/09 00:08:31;;;;;;;3.13;1.60;;;;;;;14.52;100.00;99920.09;683854;28;1341;-70
2022/11/09 00:08:52;;;;;;;3.27;1.50;;;;;;;14.47;100.00;99920.25;685394;28;1364;-70
2022/11/09 00:09:12;;;;;;;3.35;1.58;;;;;;;14.50;100.00;99916.69;684770;28;1301;-68
2022/11/09 00:09:33;;;;;;;2.67;1.40;;;;;;;14.54;100.00;99913.00;685798;28;1360;-69
2022/11/09 00:09:53;;;;;;;3.13;1.40;;;;;;;14.60;100.00;99913.66;685544;28;4483;-69
2022/11/09 00:10:14;;;;;;;3.78;1.40;;;;;;;14.56;100.00;99914.69;686485;28;1394;-67
2022/11/09 00:10:34;;;;;;;3.83;1.60;;;;;;;14.51;100.00;99914.00;686232;28;1351;-70
2022/11/09 00:11:02;;;;;;;3.27;1.50;;;;;;;14.47;100.00;99912.38;686738;28;1331;-70
2022/11/09 00:11:22;;;;;;;3.10;1.50;;;;;;;14.58;100.00;99909.34;685454;28;1138;-68
2022/11/09 00:11:42;;;;;;;3.27;1.50;;;;;;;14.58;100.00;99918.13;685293;28;1513;-71
2022/11/09 00:12:04;;;;;;;3.05;1.60;;;;;;;14.54;100.00;99908.63;685284;28;1092;-69
2022/11/09 00:12:24;;;;;;;3.83;1.70;;;;;;;14.58;100.00;99910.25;684986;28;1244;-69
2022/11/09 00:12:45;;;;;;;3.60;1.50;;;;;;;14.53;100.00;99912.16;681970;28;4536;-69
2022/11/09 00:13:05;;;;;;;4.17;1.50;;;;;;;14.48;100.00;99912.31;682376;28;1327;-69
2022/11/09 00:13:25;;;;;;;3.00;1.40;;;;;;;14.43;100.00;99916.84;683927;28;1091;-71
2022/11/09 00:13:46;;;;;;;2.95;1.50;;;;;;;14.41;100.00;99910.81;682062;29;1265;-68
2022/11/09 00:14:13;;;;;;;2.55;1.50;;;;;;;14.37;100.00;99919.69;682460;28;1054;-69
2022/11/09 00:14:33;;;;;;;2.30;1.35;;;;;;;14.35;100.00;99908.34;682991;28;1265;-68
2022/11/09 00:14:54;;;;;;;3.08;1.42;;;;;;;14.34;100.00;99921.56;684205;28;2264;-70
2022/11/09 00:15:14;;;;;;;2.80;1.50;;;;;;;14.42;100.00;99914.28;684777;28;1052;-68
2022/11/09 00:15:34;;;;;;;2.65;1.50;;;;;;;14.44;100.00;99913.31;684372;28;1515;-70
2022/11/09 00:16:00;;;;;;;3.30;1.60;;;;;;;14.43;100.00;99921.28;684944;28;4321;-68
2022/11/09 00:16:21;;;;;;;2.67;1.50;;;;;;;14.41;100.00;99915.19;684810;28;969;-70
2022/11/09 00:16:42;;;;;;;3.50;1.60;;;;;;;14.51;100.00;99919.25;684599;28;1404;-68
2022/11/09 00:17:02;;;;;;;3.27;1.50;;;;;;;14.58;100.00;99915.50;685661;28;1192;-68
2022/11/09 00:17:22;;;;;;;3.50;1.50;;;;;;;14.63;100.00;99913.63;686329;28;1366;-68
2022/11/09 00:17:43;;;;;;;4.67;1.60;;;;;;;14.67;100.00;99918.78;683970;28;1401;-69
2022/11/09 00:18:03;;;;;;;3.60;1.50;;;;;;;14.58;100.00;99917.25;682874;28;1289;-69
2022/11/09 00:18:24;;;;;;;3.50;1.50;;;;;;;14.51;100.00;99914.00;685095;28;1661;-69
2022/11/09 00:18:46;;;;;;;3.85;1.60;;;;;;;14.50;100.00;99914.03;687197;28;1289;-70
2022/11/09 00:19:06;;;;;;;3.72;1.50;;;;;;;14.51;100.00;99914.00;688988;28;5026;-69
2022/11/09 00:19:26;;;;;;;3.83;1.47;;;;;;;14.54;100.00;99916.50;689946;28;1096;-69
2022/11/09 00:19:47;;;;;;;3.78;1.50;;;;;;;14.56;100.00;99917.31;684936;28;1185;-70
2022/11/09 00:20:08;;;;;;;3.60;1.60;;;;;;;14.53;100.00;99920.03;684386;28;3555;-69
2022/11/09 00:20:29;;;;;;;3.78;1.55;;;;;;;14.48;100.00;99920.22;685056;28;1327;-69
2022/11/09 00:20:49;;;;;;;3.50;1.50;;;;;;;14.43;100.00;99911.59;682605;28;1346;-69
2022/11/09 00:21:15;;;;;;;3.83;1.53;;;;;;;14.41;100.00;99912.56;682641;28;1054;-69
2022/11/09 00:21:35;;;;;;;3.05;1.55;;;;;;;14.43;100.00;99918.63;684031;28;1915;-69
2022/11/09 00:21:56;;;;;;;3.25;1.60;;;;;;;14.38;100.00;99910.03;687076;28;4306;-69
2022/11/09 00:22:16;;;;;;;4.67;1.70;;;;;;;14.38;100.00;99913.50;684732;28;1517;-70
2022/11/09 00:22:36;;;;;;;3.70;1.60;;;;;;;14.39;100.00;99917.03;686976;28;1105;-72
2022/11/09 00:22:57;;;;;;;3.60;1.50;;;;;;;14.35;100.00;99920.66;688982;28;1056;-69
2022/11/09 00:23:17;;;;;;;4.33;1.60;;;;;;;14.35;100.00;99918.03;688082;28;1203;-70
2022/11/09 00:23:37;;;;;;;4.28;1.65;;;;;;;14.36;100.00;99915.34;688787;28;1584;-69
2022/11/09 00:23:58;;;;;;;3.70;1.50;;;;;;;14.47;100.00;99917.63;688813;28;1322;-70
2022/11/09 00:24:18;;;;;;;2.80;1.25;;;;;;;14.58;100.00;99918.13;686910;28;1289;-67
2022/11/09 00:24:39;;;;;;;3.30;1.40;;;;;;;14.61;100.00;99917.16;687551;28;1072;-69
2022/11/09 00:24:59;;;;;;;2.97;1.50;;;;;;;14.58;100.00;99912.88;687206;28;4237;-69
2022/11/09 00:25:19;;;;;;;3.22;1.50;;;;;;;14.55;100.00;99923.50;687424;28;988;-69
2022/11/09 00:25:40;;;;;;;4.10;1.50;;;;;;;14.55;100.00;99926.13;686497;28;1010;-69
2022/11/09 00:26:05;;;;;;;3.47;1.50;;;;;;;14.61;100.00;99925.91;686441;28;1163;-67
2022/11/09 00:26:26;;;;;;;4.45;1.60;;;;;;;14.67;100.00;99924.03;687602;28;1207;-68
2022/11/09 00:26:46;;;;;;;3.58;1.60;;;;;;;14.59;100.00;99924.25;687892;28;1518;-69
2022/11/09 00:27:07;;;;;;;3.43;1.60;;;;;;;14.54;100.00;99924.41;687811;28;1032;-69
2022/11/09 00:27:27;;;;;;;3.58;1.60;;;;;;;14.49;100.00;99915.78;688141;28;1153;-70
2022/11/09 00:27:47;;;;;;;3.93;1.50;;;;;;;14.46;100.00;99921.16;688274;28;4318;-72
2022/11/09 00:28:08;;;;;;;4.70;1.70;;;;;;;14.49;100.00;99921.06;688828;28;1271;-69
2022/11/09 00:28:28;;;;;;;4.38;1.58;;;;;;;14.53;100.00;99922.69;688282;28;1019;-68
2022/11/09 00:28:49;;;;;;;3.60;1.50;;;;;;;14.49;100.00;99921.06;686795;28;1292;-71
2022/11/09 00:29:09;;;;;;;3.10;1.40;;;;;;;14.46;100.00;99923.78;683252;28;1322;-70
2022/11/09 00:29:30;;;;;;;3.90;1.60;;;;;;;14.42;100.00;99923.00;682538;28;1410;-70
2022/11/09 00:29:50;;;;;;;3.67;1.60;;;;;;;14.41;100.00;99917.81;682649;29;1104;-70
2022/11/09 00:30:12;;;;;;;3.40;1.67;;;;;;;14.40;100.00;99922.22;678962;28;1373;-69
2022/11/09 00:30:33;;;;;;;3.83;1.67;;;;;;;14.45;100.00;99919.44;680293;29;1275;-70
2022/11/09 00:30:58;;;;;;;3.92;1.65;;;;;;;14.54;100.00;99920.88;682380;28;4447;-69
2022/11/09 00:31:21;;;;;;;3.75;1.60;;;;;;;14.50;100.00;99919.31;685327;28;2243;-69
2022/11/09 00:31:42;;;;;;;4.10;1.80;;;;;;;14.48;100.00;99925.47;686960;28;1391;-69
2022/11/09 00:32:02;;;;;;;4.30;1.60;;;;;;;14.47;100.00;99928.16;684403;28;1219;-71
2022/11/09 00:32:22;;;;;;;3.45;1.60;;;;;;;14.42;100.00;99919.53;686933;28;1025;-70
2022/11/09 00:32:43;;;;;;;2.93;1.50;;;;;;;14.46;100.00;99921.16;685059;28;1128;-69
2022/11/09 00:33:03;;;;;;;2.95;1.55;;;;;;;14.40;100.00;99910.81;685311;28;1136;-69
2022/11/09 00:33:24;;;;;;;3.10;1.40;;;;;;;14.42;100.00;99920.38;684494;28;1776;-70
2022/11/09 00:33:52;;;;;;;4.35;1.40;;;;;;;14.40;100.00;99923.97;684558;28;1114;-73
2022/11/09 00:34:12;;;;;;;3.17;1.50;;;;;;;14.41;100.00;99920.44;683832;28;6247;-70
2022/11/09 00:34:35;;;;;;;3.15;1.58;;;;;;;14.44;100.00;99918.59;682559;28;1559;-70
2022/11/09 00:34:55;;;;;;;3.35;1.60;;;;;;;14.39;100.00;99915.22;682639;29;1124;-71
2022/11/09 00:35:16;;;;;;;3.47;1.50;;;;;;;14.43;100.00;99918.63;682242;28;1502;-71
2022/11/09 00:35:38;;;;;;;3.30;1.50;;;;;;;14.39;100.00;99911.75;683842;28;1259;-70
2022/11/09 00:36:06;;;;;;;3.28;1.60;;;;;;;14.37;100.00;99913.56;682447;28;1765;-69
2022/11/09 00:36:28;;;;;;;3.95;1.60;;;;;;;14.36;100.00;99911.84;685694;28;1203;-69
2022/11/09 00:36:48;;;;;;;3.97;1.52;;;;;;;14.35;100.00;99908.34;684439;28;4637;-69
2022/11/09 00:37:09;;;;;;;3.60;1.50;;;;;;;14.29;100.00;99912.03;685001;28;1137;-70
2022/11/09 00:37:32;;;;;;;3.22;1.58;;;;;;;14.29;100.00;99912.03;682123;29;1313;-72
2022/11/09 00:37:53;;;;;;;3.77;1.60;;;;;;;14.29;100.00;99913.81;682448;29;1310;-70
2022/11/09 00:38:13;;;;;;;3.90;1.50;;;;;;;14.25;100.00;99913.06;679771;29;1347;-69
2022/11/09 00:38:34;;;;;;;3.80;1.58;;;;;;;14.24;100.00;99913.94;679666;29;1416;-69
2022/11/09 00:38:59;;;;;;;4.03;1.55;;;;;;;14.25;100.00;99907.78;679975;29;5000;-70
2022/11/09 00:39:19;;;;;;;3.85;1.55;;;;;;;14.23;100.00;99909.63;681881;28;1357;-69
2022/11/09 00:39:40;;;;;;;3.93;1.70;;;;;;;14.25;100.00;99922.72;685669;28;1139;-68
2022/11/09 00:40:00;;;;;;;4.20;1.80;;;;;;;14.23;100.00;99917.50;687757;28;4519;-69
2022/11/09 00:40:20;;;;;;;4.55;1.60;;;;;;;14.20;100.00;99912.34;690152;28;1102;-69
2022/11/09 00:40:41;;;;;;;4.27;1.73;;;;;;;14.16;100.00;99915.97;690345;28;1357;-70
2022/11/09 00:41:02;;;;;;;3.05;1.70;;;;;;;14.22;100.00;99913.16;685008;28;1421;-70
2022/11/09 00:41:26;;;;;;;3.95;1.55;;;;;;;14.28;100.00;99914.72;682480;28;1346;-70
2022/11/09 00:41:48;;;;;;;3.08;1.65;;;;;;;14.24;100.00;99913.09;681532;28;1152;-70
2022/11/09 00:42:09;;;;;;;3.07;1.60;;;;;;;14.22;100.00;99922.78;681370;28;1170;-69
2022/11/09 00:42:29;;;;;;;2.92;1.48;;;;;;;14.19;100.00;99915.91;681448;29;1114;-71
2022/11/09 00:42:49;;;;;;;3.03;1.47;;;;;;;14.17;100.00;99915.06;681015;28;5388;-70
2022/11/09 00:43:10;;;;;;;3.65;1.50;;;;;;;14.20;100.00;99919.38;684242;28;1080;-69
2022/11/09 00:43:31;;;;;;;3.93;1.83;;;;;;;14.18;100.00;99921.16;687818;28;1352;-69
2022/11/09 00:43:52;;;;;;;3.90;1.70;;;;;;;14.20;100.00;99920.22;687022;28;1459;-69
2022/11/09 00:44:13;;;;;;;3.70;1.58;;;;;;;14.22;100.00;99918.41;687609;28;1379;-69
2022/11/09 00:44:33;;;;;;;2.43;1.37;;;;;;;14.35;100.00;99923.28;684969;28;1389;-69
2022/11/09 00:44:53;;;;;;;3.10;1.50;;;;;;;14.29;100.00;99922.56;685245;28;1331;-68
2022/11/09 00:45:14;;;;;;;3.15;1.52;;;;;;;14.26;100.00;99921.78;684693;28;1101;-71
2022/11/09 00:45:34;;;;;;;2.77;1.47;;;;;;;14.22;100.00;99922.78;685176;28;1544;-69
2022/11/09 00:45:55;;;;;;;2.88;1.67;;;;;;;14.24;100.00;99921.84;683973;28;4330;-68
2022/11/09 00:46:16;;;;;;;3.60;1.60;;;;;;;14.21;100.00;99924.56;683841;28;1130;-70
2022/11/09 00:46:37;;;;;;;2.78;1.50;;;;;;;14.22;100.00;99920.16;684643;28;1452;-70
2022/11/09 00:46:57;;;;;;;2.97;1.63;;;;;;;14.30;100.00;99920.78;684553;28;928;-68
2022/11/09 00:47:17;;;;;;;2.90;1.60;;;;;;;14.33;100.00;99927.72;684520;28;1587;-70
2022/11/09 00:47:38;;;;;;;3.63;1.73;;;;;;;14.28;100.00;99920.84;687315;28;1523;-70
2022/11/09 00:47:58;;;;;;;3.88;1.77;;;;;;;14.24;100.00;99919.22;684948;28;1705;-69
2022/11/09 00:48:18;;;;;;;3.70;1.60;;;;;;;14.22;100.00;99917.53;684888;28;1421;-70
2022/11/09 00:48:39;;;;;;;4.30;1.60;;;;;;;14.23;100.00;99919.25;687922;28;1346;-68
2022/11/09 00:48:59;;;;;;;3.72;1.65;;;;;;;14.36;100.00;99922.34;687165;28;4378;-69
2022/11/09 00:49:20;;;;;;;3.10;1.50;;;;;;;14.42;100.00;99923.00;690186;28;1100;-70
2022/11/09 00:49:40;;;;;;;3.00;1.60;;;;;;;14.38;100.00;99913.50;690457;28;1206;-68
2022/11/09 00:50:01;;;;;;;3.30;1.70;;;;;;;14.31;100.00;99919.88;687720;28;1223;-70
2022/11/09 00:50:21;;;;;;;2.60;1.47;;;;;;;14.25;100.00;99913.06;687668;28;1002;-70
2022/11/09 00:50:48;;;;;;;3.80;1.60;;;;;;;14.22;100.00;99915.78;687567;28;1255;-69
2022/11/09 00:51:08;;;;;;;2.92;1.60;;;;;;;14.29;100.00;99919.94;684756;28;1587;-70
2022/11/09 00:51:29;;;;;;;3.30;1.63;;;;;;;14.26;100.00;99906.91;684992;28;1373;-69
2022/11/09 00:51:49;;;;;;;3.47;1.70;;;;;;;14.23;100.00;99914.88;684779;28;4313;-71
2022/11/09 00:52:10;;;;;;;2.92;1.60;;;;;;;14.19;100.00;99913.25;684584;28;1296;-70
2022/11/09 00:52:30;;;;;;;3.30;1.50;;;;;;;14.17;100.00;99917.69;682437;29;1120;-71
2022/11/09 00:52:51;;;;;;;3.90;1.52;;;;;;;14.13;100.00;99910.81;682729;28;1167;-69
2022/11/09 00:53:11;;;;;;;3.77;1.60;;;;;;;14.13;100.00;99914.28;687437;28;1084;-69
2022/11/09 00:53:32;;;;;;;3.60;1.70;;;;;;;14.14;100.00;99912.53;687897;28;1068;-69
2022/11/09 00:53:55;;;;;;;3.80;1.70;;;;;;;14.18;100.00;99911.53;687949;28;1297;-70
2022/11/09 00:54:16;;;;;;;3.60;1.60;;;;;;;14.23;100.00;99914.88;685384;28;1391;-70
2022/11/09 00:54:36;;;;;;;3.47;1.60;;;;;;;14.25;100.00;99917.47;685005;28;1386;-70
2022/11/09 00:54:57;;;;;;;3.90;1.60;;;;;;;14.22;100.00;99918.41;682959;28;4476;-69
2022/11/09 00:55:19;;;;;;;3.10;1.67;;;;;;;14.20;100.00;99916.75;679457;29;1263;-70
2022/11/09 00:55:40;;;;;;;3.28;1.80;;;;;;;14.19;100.00;99913.25;679686;29;1425;-69
2022/11/09 00:56:01;;;;;;;3.92;1.75;;;;;;;14.15;100.00;99916.91;679560;29;1437;-69
2022/11/09 00:56:21;;;;;;;3.60;1.67;;;;;;;14.23;100.00;99917.50;679099;29;1272;-71
2022/11/09 00:56:42;;;;;;;4.33;1.70;;;;;;;14.23;100.00;99914.00;679296;29;1193;-70
2022/11/09 00:57:02;;;;;;;3.45;1.70;;;;;;;14.21;100.00;99905.31;679726;29;1355;-69
2022/11/09 00:57:23;;;;;;;3.33;1.50;;;;;;;14.21;100.00;99916.69;679404;29;1371;-70
2022/11/09 00:57:44;;;;;;;3.37;1.47;;;;;;;14.18;100.00;99922.06;679810;29;1354;-70
2022/11/09 00:58:04;;;;;;;3.30;1.60;;;;;;;14.14;100.00;99917.78;679436;29;4989;-70
2022/11/09 00:58:27;;;;;;;3.10;1.60;;;;;;;14.20;100.00;99925.47;679639;29;1631;-70
2022/11/09 00:58:52;;;;;;;4.50;1.60;;;;;;;14.15;100.00;99919.53;678250;29;1265;-70
2022/11/09 00:59:13;;;;;;;3.47;1.58;;;;;;;14.14;100.00;99918.66;682709;28;1189;-70
2022/11/09 00:59:33;;;;;;;3.60;1.60;;;;;;;14.20;100.00;99914.09;685129;28;1207;-70
2022/11/09 00:59:53;;;;;;;3.80;1.60;;;;;;;14.25;100.00;99917.47;685084;28;1112;-68
2022/11/09 01:00:18;;;;;;;4.43;1.85;;;;;;;14.26;100.00;99914.78;686161;28;1239;-69
2022/11/09 01:00:38;;;;;;;4.22;1.80;;;;;;;14.24;100.00;99915.72;686971;28;1196;-69
2022/11/09 01:01:04;;;;;;;4.20;1.80;;;;;;;14.20;100.00;99904.44;686673;28;4329;-69
2022/11/09 01:01:24;;;;;;;3.25;1.67;;;;;;;14.19;100.00;99909.75;684421;28;1031;-70
2022/11/09 01:01:44;;;;;;;2.85;1.55;;;;;;;14.16;100.00;99908.06;685177;28;1969;-70
2022/11/09 01:02:05;;;;;;;3.20;1.53;;;;;;;14.18;100.00;99901.03;685146;28;1138;-69
2022/11/09 01:02:27;;;;;;;3.20;1.65;;;;;;;14.12;100.00;99909.97;682594;28;1824;-69
2022/11/09 01:02:50;;;;;;;3.25;1.70;;;;;;;14.23;100.00;99914.00;679772;29;2038;-68
2022/11/09 01:03:11;;;;;;;4.05;1.65;;;;;;;14.20;100.00;99904.44;679648;29;1294;-69
2022/11/09 01:03:32;;;;;;;2.70;1.50;;;;;;;14.17;100.00;99909.81;679607;29;1368;-69
2022/11/09 01:03:54;;;;;;;3.63;1.40;;;;;;;14.13;100.00;99908.19;680475;28;4365;-69
2022/11/09 01:04:14;;;;;;;4.30;1.50;;;;;;;14.09;100.00;99901.31;680278;29;1222;-71
2022/11/09 01:04:35;;;;;;;4.03;1.50;;;;;;;14.10;100.00;99905.66;682968;28;1339;-69
2022/11/09 01:04:55;;;;;;;3.60;1.60;;;;;;;14.08;100.00;99899.56;685190;28;1109;-70
2022/11/09 01:05:16;;;;;;;3.80;1.60;;;;;;;14.08;100.00;99902.19;682016;28;1531;-70
2022/11/09 01:05:40;;;;;;;4.78;1.67;;;;;;;14.04;100.00;99905.84;682035;29;1258;-70
2022/11/09 01:06:00;;;;;;;3.97;1.65;;;;;;;14.00;100.00;99898.94;683118;28;1297;-69
2022/11/09 01:06:23;;;;;;;3.35;1.70;;;;;;;13.99;100.00;99902.50;681457;28;1202;-69
2022/11/09 01:06:44;;;;;;;3.55;1.70;;;;;;;13.95;100.00;99907.84;680479;29;1274;-70
2022/11/09 01:07:06;;;;;;;3.83;1.80;;;;;;;14.04;100.00;99904.09;680221;28;4261;-71
2022/11/09 01:07:27;;;;;;;3.97;1.80;;;;;;;14.04;100.00;99900.56;682300;29;1167;-68
2022/11/09 01:07:47;;;;;;;3.17;1.60;;;;;;;14.07;100.00;99908.38;681989;29;1144;-70
2022/11/09 01:08:07;;;;;;;3.35;1.50;;;;;;;14.15;100.00;99901.13;683190;28;1036;-69
2022/11/09 01:08:28;;;;;;;2.60;1.50;;;;;;;14.11;100.00;99902.13;685120;28;1262;-70
2022/11/09 01:08:50;;;;;;;3.05;1.60;;;;;;;14.12;100.00;99902.06;682157;28;1285;-69
2022/11/09 01:09:11;;;;;;;3.78;1.52;;;;;;;14.26;100.00;99901.63;683625;28;1553;-68
2022/11/09 01:09:31;;;;;;;3.30;1.63;;;;;;;14.24;100.00;99905.22;683302;28;1226;-70
2022/11/09 01:09:52;;;;;;;3.60;1.53;;;;;;;14.18;100.00;99910.66;683486;28;4528;-70
2022/11/09 01:10:12;;;;;;;3.10;1.50;;;;;;;14.13;100.00;99906.41;681948;29;1201;-69
2022/11/09 01:10:33;;;;;;;3.73;1.70;;;;;;;14.18;100.00;99911.53;682103;28;1316;-69
2022/11/09 01:10:53;;;;;;;2.97;1.65;;;;;;;14.21;100.00;99908.81;681988;29;1120;-69
2022/11/09 01:11:18;;;;;;;3.55;1.60;;;;;;;14.17;100.00;99912.44;681794;28;1288;-69
2022/11/09 01:11:38;;;;;;;3.63;1.67;;;;;;;14.13;100.00;99918.69;681498;28;1394;-70
2022/11/09 01:11:58;;;;;;;3.03;1.63;;;;;;;14.08;100.00;99910.09;681893;29;1318;-69
2022/11/09 01:12:19;;;;;;;4.87;1.77;;;;;;;14.08;100.00;99910.97;682668;28;1358;-70
2022/11/09 01:12:39;;;;;;;4.45;1.80;;;;;;;14.09;100.00;99912.66;682359;28;1294;-70
2022/11/09 01:13:00;;;;;;;3.58;1.92;;;;;;;14.14;100.00;99923.91;682959;28;4431;-69
2022/11/09 01:13:21;;;;;;;3.53;1.70;;;;;;;14.10;100.00;99917.03;684872;28;1631;-73
2022/11/09 01:13:41;;;;;;;3.47;1.63;;;;;;;14.08;100.00;99915.34;680714;29;1141;-70
2022/11/09 01:14:01;;;;;;;4.07;1.70;;;;;;;14.09;100.00;99915.28;680836;29;1263;-69
2022/11/09 01:14:22;;;;;;;4.25;1.60;;;;;;;14.10;100.00;99916.16;682374;28;1093;-69
2022/11/09 01:14:43;;;;;;;3.60;1.70;;;;;;;14.07;100.00;99914.50;682181;28;1188;-69
2022/11/09 01:15:04;;;;;;;3.83;1.70;;;;;;;14.06;100.00;99914.53;682460;29;1343;-70
2022/11/09 01:15:24;;;;;;;3.97;1.70;;;;;;;14.01;100.00;99914.69;682334;28;1591;-69
2022/11/09 01:15:47;;;;;;;3.50;1.50;;;;;;;13.99;100.00;99919.13;684533;28;4374;-70
2022/11/09 01:16:11;;;;;;;2.92;1.58;;;;;;;14.05;100.00;99918.06;684327;28;1164;-69
2022/11/09 01:16:31;;;;;;;3.80;1.60;;;;;;;14.06;100.00;99915.41;683961;28;1158;-69
2022/11/09 01:16:52;;;;;;;3.00;1.80;;;;;;;14.03;100.00;99914.66;684966;28;1040;-69
2022/11/09 01:17:12;;;;;;;3.83;1.60;;;;;;;14.10;100.00;99916.16;684594;28;1156;-68
2022/11/09 01:17:32;;;;;;;3.80;1.70;;;;;;;14.08;100.00;99920.59;685225;28;1079;-69
2022/11/09 01:17:53;;;;;;;2.97;1.50;;;;;;;14.05;100.00;99921.59;679757;29;1243;-69
2022/11/09 01:18:15;;;;;;;3.35;1.42;;;;;;;14.03;100.00;99915.50;679075;29;1168;-68
2022/11/09 01:18:36;;;;;;;3.78;1.55;;;;;;;14.01;100.00;99922.59;679553;29;1108;-69
2022/11/09 01:18:57;;;;;;;4.22;1.70;;;;;;;14.03;100.00;99919.91;679813;29;4475;-70
2022/11/09 01:19:18;;;;;;;5.05;1.80;;;;;;;14.09;100.00;99924.97;682327;28;1251;-70
2022/11/09 01:19:39;;;;;;;3.53;1.70;;;;;;;14.06;100.00;99922.44;683025;28;1172;-70
2022/11/09 01:19:59;;;;;;;3.30;1.80;;;;;;;14.03;100.00;99918.13;681989;29;1268;-68
2022/11/09 01:20:19;;;;;;;3.30;1.70;;;;;;;14.06;100.00;99925.06;681733;29;1406;-69
2022/11/09 01:20:42;;;;;;;3.40;1.60;;;;;;;14.12;100.00;99919.59;682446;29;1042;-69
2022/11/09 01:21:04;;;;;;;4.07;1.70;;;;;;;14.14;100.00;99921.28;682280;29;920;-70
2022/11/09 01:21:26;;;;;;;4.20;1.70;;;;;;;14.18;100.00;99922.06;682789;28;1069;-69
2022/11/09 01:21:46;;;;;;;3.90;1.73;;;;;;;14.26;100.00;99920.03;685179;28;4463;-72
2022/11/09 01:22:06;;;;;;;3.35;1.63;;;;;;;14.30;100.00;99920.78;685347;28;1036;-69
2022/11/09 01:22:27;;;;;;;3.03;1.90;;;;;;;14.24;100.00;99915.72;686939;28;1254;-71
2022/11/09 01:22:48;;;;;;;3.35;1.83;;;;;;;14.17;100.00;99922.09;685189;28;1508;-70
2022/11/09 01:23:10;;;;;;;3.15;1.77;;;;;;;14.14;100.00;99920.44;685047;28;993;-70
2022/11/09 01:23:31;;;;;;;3.05;1.70;;;;;;;14.10;100.00;99916.16;685034;28;1403;-70
2022/11/09 01:23:52;;;;;;;3.10;1.60;;;;;;;14.05;100.00;99920.69;682330;28;1430;-70
2022/11/09 01:24:12;;;;;;;3.40;1.60;;;;;;;14.06;100.00;99922.44;681255;28;1536;-70
2022/11/09 01:24:32;;;;;;;3.50;1.60;;;;;;;14.03;100.00;99917.28;682843;28;1384;-70
2022/11/09 01:24:53;;;;;;;3.13;1.60;;;;;;;14.01;100.00;99919.06;684575;28;4530;-70
2022/11/09 01:25:14;;;;;;;3.17;1.50;;;;;;;13.99;100.00;99916.50;684829;28;1534;-70
2022/11/09 01:25:35;;;;;;;3.38;1.70;;;;;;;13.96;100.00;99920.06;685377;28;1222;-69
2022/11/09 01:26:00;;;;;;;3.88;1.65;;;;;;;13.94;100.00;99919.28;684784;28;1479;-70
2022/11/09 01:26:20;;;;;;;2.65;1.50;;;;;;;13.92;100.00;99915.81;680648;29;1026;-69
2022/11/09 01:26:41;;;;;;;2.97;1.60;;;;;;;13.91;100.00;99923.75;681764;29;922;-70
2022/11/09 01:27:01;;;;;;;3.35;1.70;;;;;;;13.96;100.00;99919.22;682462;29;1376;-70
2022/11/09 01:27:21;;;;;;;3.80;1.70;;;;;;;13.96;100.00;99921.84;683045;28;1300;-72
2022/11/09 01:27:42;;;;;;;3.33;1.50;;;;;;;13.93;100.00;99921.97;682772;28;1558;-69
2022/11/09 01:28:04;;;;;;;3.05;1.58;;;;;;;14.04;100.00;99918.97;684406;28;4345;-70
2022/11/09 01:28:24;;;;;;;3.10;1.60;;;;;;;14.01;100.00;99930.47;684463;28;1237;-70
2022/11/09 01:28:44;;;;;;;2.93;1.60;;;;;;;13.99;100.00;99913.03;685029;28;1148;-69
2022/11/09 01:29:05;;;;;;;3.03;1.70;;;;;;;13.95;100.00;99918.34;685137;28;1227;-69
2022/11/09 01:29:26;;;;;;;3.40;1.70;;;;;;;13.95;100.00;99920.13;684907;28;1420;-70
2022/11/09 01:29:49;;;;;;;3.65;1.80;;;;;;;13.99;100.00;99920.91;684067;28;1119;-70
2022/11/09 01:30:10;;;;;;;3.67;1.63;;;;;;;13.96;100.00;99927.13;682034;28;1307;-70
2022/11/09 01:30:34;;;;;;;3.00;1.60;;;;;;;13.91;100.00;99924.59;682021;29;1045;-69
2022/11/09 01:30:54;;;;;;;3.20;1.70;;;;;;;14.02;100.00;99921.66;680298;28;4301;-71
2022/11/09 01:31:17;;;;;;;3.55;1.60;;;;;;;14.10;100.00;99924.06;682483;28;1216;-70
2022/11/09 01:31:38;;;;;;;4.40;1.52;;;;;;;14.12;100.00;99924.84;684228;28;1712;-70
2022/11/09 01:31:58;;;;;;;3.67;1.60;;;;;;;14.14;100.00;99926.53;680646;28;1333;-70
2022/11/09 01:32:18;;;;;;;3.70;1.70;;;;;;;14.15;100.00;99930.03;680635;29;1662;-70
2022/11/09 01:32:39;;;;;;;3.40;1.70;;;;;;;14.11;100.00;99925.78;681241;29;1300;-69
2022/11/09 01:33:02;;;;;;;4.03;1.50;;;;;;;14.09;100.00;99919.69;681545;29;1642;-69
2022/11/09 01:33:22;;;;;;;3.95;1.70;;;;;;;14.08;100.00;99920.59;681218;29;1034;-69
2022/11/09 01:33:43;;;;;;;3.80;1.60;;;;;;;14.02;100.00;99923.44;679700;29;1341;-69
2022/11/09 01:34:03;;;;;;;3.53;1.67;;;;;;;14.00;100.00;99923.47;679834;29;4332;-69
2022/11/09 01:34:27;;;;;;;3.85;1.90;;;;;;;14.09;100.00;99922.31;680664;29;1115;-69
2022/11/09 01:34:48;;;;;;;4.22;1.95;;;;;;;14.10;100.00;99924.91;679345;29;915;-70
2022/11/09 01:35:08;;;;;;;3.83;1.73;;;;;;;14.13;100.00;99923.94;680016;29;1258;-70
2022/11/09 01:35:32;;;;;;;3.80;1.60;;;;;;;14.11;100.00;99925.78;682271;29;1179;-69
2022/11/09 01:35:52;;;;;;;3.63;1.60;;;;;;;14.07;100.00;99930.25;681582;29;1086;-70
2022/11/09 01:36:19;;;;;;;3.25;1.60;;;;;;;14.09;100.00;99927.59;680246;29;1220;-70
2022/11/09 01:36:40;;;;;;;3.25;1.55;;;;;;;14.10;100.00;99930.16;681444;28;1098;-70
2022/11/09 01:37:00;;;;;;;4.03;1.63;;;;;;;14.14;100.00;99929.16;684070;28;4260;-69
2022/11/09 01:37:22;;;;;;;3.10;1.60;;;;;;;14.07;100.00;99924.16;680484;28;1066;-69
2022/11/09 01:37:42;;;;;;;3.83;1.70;;;;;;;14.12;100.00;99924.84;683224;28;1255;-69
2022/11/09 01:38:05;;;;;;;4.47;1.63;;;;;;;14.12;100.00;99930.09;682294;28;1524;-70
2022/11/09 01:38:26;;;;;;;3.38;1.60;;;;;;;14.18;100.00;99932.56;682362;29;1037;-70
2022/11/09 01:38:48;;;;;;;4.07;1.63;;;;;;;14.17;100.00;99930.00;682022;29;5071;-70
2022/11/09 01:39:08;;;;;;;3.90;1.60;;;;;;;14.17;100.00;99930.84;682583;28;1187;-71
2022/11/09 01:39:31;;;;;;;3.30;1.63;;;;;;;14.12;100.00;99928.38;678725;29;1265;-70
2022/11/09 01:39:52;;;;;;;3.50;1.70;;;;;;;14.06;100.00;99920.66;675209;29;5153;-71
2022/11/09 01:40:12;;;;;;;3.97;1.70;;;;;;;14.08;100.00;99928.47;676802;29;1116;-69
2022/11/09 01:40:35;;;;;;;3.03;1.60;;;;;;;14.06;100.00;99927.69;677186;29;1497;-70